Time;durP1;ratioP1;P1;durP2;ratioP2;P2;SDS_P1;SDS_P2;PMS_P1;PMS_P2;Temp;Humidity;BMP_temperature;BMP_pressure;BME280_temperature;BME280_humidity;BME280_pressure;Samples;Min_cycle;Max_cycle;Signal;HPM_P1;HPM_P2
2022/04/15 00:02:06;;;;;;;11.07;9.48;;;12.80;91.50;;;;;;5024576;28;20214;-72
2022/04/15 00:04:34;;;;;;;11.10;8.90;;;12.80;91.30;;;;;;5016532;28;20239;-73
2022/04/15 00:07:01;;;;;;;11.20;8.48;;;12.80;91.30;;;;;;5016031;28;20212;-72
2022/04/15 00:09:30;;;;;;;18.45;10.52;;;12.70;91.40;;;;;;5016947;28;20224;-72
2022/04/15 00:12:00;;;;;;;19.60;10.40;;;12.60;91.60;;;;;;5018842;28;20799;-73
2022/04/15 00:14:27;;;;;;;88.55;24.08;;;12.70;92.30;;;;;;5037458;28;20208;-72
2022/04/15 00:16:54;;;;;;;14.98;10.10;;;12.70;92.40;;;;;;5038654;28;20739;-72
2022/04/15 00:19:21;;;;;;;13.13;9.35;;;12.70;92.30;;;;;;5038725;28;20231;-70
2022/04/15 00:21:49;;;;;;;10.50;9.35;;;12.60;92.00;;;;;;5056347;28;20187;-71
2022/04/15 00:24:16;;;;;;;11.25;9.10;;;12.60;92.30;;;;;;5043970;28;20272;-73
2022/04/15 00:26:43;;;;;;;11.27;8.75;;;12.60;92.30;;;;;;5036280;28;20234;-72
2022/04/15 00:29:10;;;;;;;21.60;11.68;;;12.50;92.40;;;;;;5034804;28;20216;-73
2022/04/15 00:31:37;;;;;;;14.48;9.65;;;12.40;92.50;;;;;;5036906;28;20222;-72
2022/04/15 00:34:04;;;;;;;9.52;8.43;;;12.40;93.60;;;;;;5031598;28;20679;-71
2022/04/15 00:36:31;;;;;;;9.80;8.68;;;12.30;94.10;;;;;;5036693;28;20227;-73
2022/04/15 00:38:59;;;;;;;10.65;9.23;;;12.30;94.50;;;;;;5029624;28;20617;-72
2022/04/15 00:41:26;;;;;;;13.07;8.88;;;12.30;94.30;;;;;;5023717;28;20623;-73
2022/04/15 00:43:55;;;;;;;10.85;8.52;;;12.30;94.70;;;;;;5037528;28;20215;-72
2022/04/15 00:46:22;;;;;;;9.77;8.10;;;12.30;94.90;;;;;;5019310;28;20211;-74
2022/04/15 00:48:49;;;;;;;10.75;8.27;;;12.20;95.00;;;;;;5020131;28;20208;-72
2022/04/15 00:51:16;;;;;;;10.95;8.63;;;12.20;95.20;;;;;;5026801;28;20546;-72
2022/04/15 00:53:45;;;;;;;11.07;8.70;;;12.20;95.30;;;;;;5049614;28;20211;-73
2022/04/15 00:56:14;;;;;;;9.48;8.38;;;12.20;95.20;;;;;;5042480;28;20216;-73
2022/04/15 00:58:42;;;;;;;9.98;8.68;;;12.20;95.20;;;;;;5024871;28;20326;-73
2022/04/15 01:01:09;;;;;;;11.35;9.55;;;12.20;95.40;;;;;;5046535;28;20219;-73
2022/04/15 01:03:37;;;;;;;9.02;8.10;;;12.10;95.50;;;;;;5040702;28;20223;-73
2022/04/15 01:06:07;;;;;;;9.30;8.40;;;12.10;95.80;;;;;;5029372;28;20215;-73
2022/04/15 01:08:39;;;;;;;11.48;9.40;;;12.00;95.70;;;;;;5034994;28;20199;-73
2022/04/15 01:11:08;;;;;;;14.32;8.50;;;11.90;95.70;;;;;;5036566;28;20239;-72
2022/04/15 01:13:38;;;;;;;11.98;9.45;;;12.00;96.70;;;;;;5028957;28;20200;-74
2022/04/15 01:16:07;;;;;;;9.95;8.77;;;12.00;97.10;;;;;;5016529;28;20628;-73
2022/04/15 01:18:34;;;;;;;11.25;9.20;;;12.00;97.10;;;;;;5021657;28;20203;-74
2022/04/15 01:21:01;;;;;;;10.02;8.18;;;11.90;97.50;;;;;;5037523;28;20286;-73
2022/04/15 01:23:30;;;;;;;12.35;9.88;;;11.90;97.70;;;;;;5040574;28;20203;-73
2022/04/15 01:25:56;;;;;;;9.48;8.57;;;11.80;97.60;;;;;;5041362;28;20214;-73
2022/04/15 01:28:23;;;;;;;11.13;9.50;;;11.80;98.30;;;;;;5033871;28;20204;-73
2022/04/15 01:30:51;;;;;;;10.30;9.00;;;11.70;98.30;;;;;;5016467;28;20223;-74
2022/04/15 01:33:18;;;;;;;9.52;8.60;;;11.70;98.40;;;;;;5020594;28;20290;-73
2022/04/15 01:35:48;;;;;;;12.18;8.52;;;11.70;98.50;;;;;;5034365;28;20214;-74
2022/04/15 01:38:17;;;;;;;9.27;8.35;;;11.60;98.40;;;;;;5033798;28;20203;-72
2022/04/15 01:40:46;;;;;;;12.82;8.95;;;11.60;98.60;;;;;;5033923;28;20305;-73
2022/04/15 01:43:13;;;;;;;9.50;8.60;;;11.60;98.70;;;;;;5030333;28;20231;-73
2022/04/15 01:45:40;;;;;;;11.88;8.32;;;11.60;99.00;;;;;;5014242;28;20214;-73
2022/04/15 01:48:08;;;;;;;9.77;8.77;;;11.60;98.80;;;;;;5014983;28;20207;-75
2022/04/15 01:50:35;;;;;;;9.55;8.65;;;11.50;98.70;;;;;;5015194;28;20285;-72
2022/04/15 01:53:02;;;;;;;10.05;8.80;;;11.50;99.00;;;;;;5016650;28;20302;-73
2022/04/15 01:55:29;;;;;;;14.70;8.38;;;11.50;99.30;;;;;;5016372;28;20327;-73
2022/04/15 01:57:58;;;;;;;12.00;9.48;;;11.40;99.60;;;;;;5020618;28;20283;-71
2022/04/15 02:00:25;;;;;;;10.43;9.15;;;11.50;99.80;;;;;;5036456;28;20263;-73
2022/04/15 02:02:52;;;;;;;9.63;8.63;;;11.50;99.80;;;;;;5036397;28;20207;-75
2022/04/15 02:05:19;;;;;;;10.25;9.25;;;11.50;99.90;;;;;;5019226;28;20204;-72
2022/04/15 02:07:46;;;;;;;10.27;8.88;;;11.40;99.90;;;;;;5019375;28;20231;-74
2022/04/15 02:10:13;;;;;;;12.80;9.52;;;11.40;99.90;;;;;;5033118;28;20229;-74
2022/04/15 02:12:40;;;;;;;10.32;8.70;;;11.50;99.90;;;;;;5037297;28;20361;-73
2022/04/15 02:15:10;;;;;;;10.82;9.07;;;11.40;99.90;;;;;;5034095;28;20241;-72
2022/04/15 02:17:37;;;;;;;12.45;8.82;;;11.40;99.90;;;;;;5042870;28;20277;-74
2022/04/15 02:20:05;;;;;;;11.30;9.38;;;11.40;99.90;;;;;;5025980;28;20287;-74
2022/04/15 02:22:32;;;;;;;10.45;8.82;;;11.30;99.90;;;;;;5018043;28;20208;-73
2022/04/15 02:25:00;;;;;;;9.48;8.48;;;11.30;99.90;;;;;;5029792;28;20234;-73
2022/04/15 02:27:27;;;;;;;10.77;8.73;;;11.30;99.90;;;;;;5028080;28;20610;-73
2022/04/15 02:29:54;;;;;;;9.20;8.27;;;11.30;99.90;;;;;;5041415;28;20223;-72
2022/04/15 02:32:23;;;;;;;9.45;8.35;;;11.20;99.70;;;;;;5048231;28;20304;-73
2022/04/15 02:34:50;;;;;;;10.63;9.52;;;11.20;99.90;;;;;;5035493;28;20231;-73
2022/04/15 02:37:16;;;;;;;9.55;8.50;;;11.20;99.90;;;;;;5031362;28;20239;-72
2022/04/15 02:39:43;;;;;;;10.02;8.90;;;11.10;99.90;;;;;;5041293;28;20223;-72
2022/04/15 02:42:10;;;;;;;11.10;9.25;;;11.10;99.90;;;;;;5043367;28;20715;-73
2022/04/15 02:44:38;;;;;;;10.40;9.05;;;11.10;99.90;;;;;;5034147;28;20203;-72
2022/04/15 02:47:05;;;;;;;10.95;9.85;;;11.10;99.90;;;;;;5033750;28;20222;-73
2022/04/15 02:49:34;;;;;;;13.27;9.27;;;11.10;99.90;;;;;;5028432;28;20227;-73
2022/04/15 02:52:01;;;;;;;11.05;9.20;;;11.10;99.90;;;;;;5033433;28;20318;-73
2022/04/15 02:54:28;;;;;;;13.88;9.30;;;11.10;99.90;;;;;;5021885;28;20243;-73
2022/04/15 02:56:55;;;;;;;9.90;8.75;;;11.00;99.90;;;;;;5014298;28;20208;-75
2022/04/15 02:59:21;;;;;;;10.55;9.40;;;11.00;99.90;;;;;;5024812;28;20707;-76
2022/04/15 03:01:49;;;;;;;11.25;9.57;;;11.00;99.90;;;;;;5038924;28;20628;-74
2022/04/15 03:04:16;;;;;;;10.73;9.18;;;11.00;99.90;;;;;;5045681;28;20221;-74
2022/04/15 03:06:45;;;;;;;12.40;9.40;;;10.90;99.90;;;;;;5023722;28;20239;-73
2022/04/15 03:09:12;;;;;;;11.02;9.45;;;10.90;99.90;;;;;;5016795;28;20688;-73
2022/04/15 03:11:38;;;;;;;10.93;9.82;;;10.80;99.90;;;;;;5016669;28;20258;-74
2022/04/15 03:14:06;;;;;;;10.60;8.70;;;10.80;99.90;;;;;;5017579;28;20208;-73
2022/04/15 03:16:34;;;;;;;10.05;8.85;;;10.80;99.90;;;;;;5016387;28;20223;-73
2022/04/15 03:19:00;;;;;;;10.18;9.20;;;10.70;99.90;;;;;;5016416;28;20204;-73
2022/04/15 03:21:27;;;;;;;12.50;9.10;;;10.70;99.90;;;;;;5017110;28;20616;-74
2022/04/15 03:23:56;;;;;;;14.35;9.32;;;10.70;99.90;;;;;;5025211;28;20204;-73
2022/04/15 03:26:23;;;;;;;10.73;9.63;;;10.70;99.90;;;;;;5019255;28;20690;-74
2022/04/15 03:28:50;;;;;;;11.25;9.35;;;10.60;99.90;;;;;;5024947;28;20276;-73
2022/04/15 03:31:17;;;;;;;10.20;9.05;;;10.60;99.90;;;;;;5021722;28;20262;-75
2022/04/15 03:33:44;;;;;;;18.20;9.50;;;10.70;99.90;;;;;;5021796;28;20203;-73
2022/04/15 03:36:11;;;;;;;13.23;10.07;;;10.60;99.90;;;;;;5036021;28;20689;-73
2022/04/15 03:38:38;;;;;;;12.50;10.48;;;10.60;99.90;;;;;;5032034;28;20282;-73
2022/04/15 03:41:07;;;;;;;10.98;9.90;;;10.60;99.90;;;;;;5015914;28;20235;-73
2022/04/15 03:43:34;;;;;;;11.18;10.07;;;10.60;99.90;;;;;;5023526;28;20578;-73
2022/04/15 03:46:00;;;;;;;12.90;10.95;;;10.50;99.90;;;;;;5036310;28;20211;-74
2022/04/15 03:48:27;;;;;;;12.13;9.90;;;10.40;99.90;;;;;;5042793;28;20208;-75
2022/04/15 03:50:54;;;;;;;12.23;10.40;;;10.40;99.90;;;;;;5046847;28;20299;-73
2022/04/15 03:53:22;;;;;;;10.90;9.57;;;10.40;99.90;;;;;;5043435;28;20286;-74
2022/04/15 03:55:49;;;;;;;14.15;10.35;;;10.30;99.90;;;;;;5033567;28;20232;-73
2022/04/15 03:58:17;;;;;;;12.52;9.63;;;10.30;99.90;;;;;;5017581;28;20266;-73
2022/04/15 04:00:45;;;;;;;11.27;10.07;;;10.30;99.90;;;;;;5038337;28;20218;-74
2022/04/15 04:03:13;;;;;;;11.68;9.48;;;10.20;99.90;;;;;;5045380;28;20286;-73
2022/04/15 04:05:41;;;;;;;13.20;11.07;;;10.20;99.90;;;;;;5047906;28;20207;-72
2022/04/15 04:08:08;;;;;;;12.20;10.32;;;10.20;99.90;;;;;;5045174;28;20239;-74
2022/04/15 04:10:35;;;;;;;13.32;11.27;;;10.20;99.90;;;;;;5050137;28;20231;-72
2022/04/15 04:13:02;;;;;;;12.38;11.18;;;10.20;99.90;;;;;;5035702;28;20265;-73
2022/04/15 04:15:31;;;;;;;11.93;10.30;;;10.20;99.90;;;;;;5015514;28;20620;-73
2022/04/15 04:17:58;;;;;;;14.88;12.18;;;10.20;99.90;;;;;;5028980;28;20288;-73
2022/04/15 04:20:25;;;;;;;15.23;12.88;;;10.20;99.90;;;;;;5056839;28;20235;-72
2022/04/15 04:22:52;;;;;;;13.20;11.07;;;10.20;99.90;;;;;;5057207;28;20214;-72
2022/04/15 04:25:19;;;;;;;14.70;12.02;;;10.10;99.90;;;;;;5037657;28;20184;-73
2022/04/15 04:27:46;;;;;;;12.48;11.20;;;10.10;99.90;;;;;;5037612;28;20211;-71
2022/04/15 04:30:15;;;;;;;12.50;11.18;;;10.10;99.90;;;;;;5054052;28;20283;-73
2022/04/15 04:32:49;;;;;;;14.30;11.70;;;10.10;99.90;;;;;;5056761;28;20229;-73
2022/04/15 04:35:16;;;;;;;12.43;10.20;;;10.00;99.90;;;;;;5038565;28;20204;-72
2022/04/15 04:37:44;;;;;;;11.85;10.65;;;10.00;99.90;;;;;;5038901;28;20226;-72
2022/04/15 04:40:11;;;;;;;11.98;10.68;;;10.00;99.90;;;;;;5057514;28;20262;-73
2022/04/15 04:42:39;;;;;;;13.50;12.10;;;10.00;99.90;;;;;;5055410;28;20203;-71
2022/04/15 04:45:07;;;;;;;16.80;12.63;;;10.00;99.90;;;;;;5037732;28;20219;-73
2022/04/15 04:47:34;;;;;;;15.23;12.20;;;10.00;99.90;;;;;;5036640;28;20227;-71
2022/04/15 04:50:02;;;;;;;17.67;12.60;;;10.00;99.90;;;;;;5052976;28;20231;-74
2022/04/15 04:52:29;;;;;;;18.23;13.82;;;10.00;99.90;;;;;;5052705;28;20262;-74
2022/04/15 04:54:56;;;;;;;16.08;14.27;;;10.00;99.90;;;;;;5052629;28;20223;-74
2022/04/15 04:57:23;;;;;;;15.80;13.20;;;10.10;99.90;;;;;;5052943;28;20207;-75
2022/04/15 04:59:50;;;;;;;13.68;12.20;;;10.20;99.90;;;;;;5034925;28;20227;-73
2022/04/15 05:02:17;;;;;;;14.45;12.27;;;10.20;99.90;;;;;;5033017;28;20227;-73
2022/04/15 05:04:44;;;;;;;12.63;10.98;;;10.30;99.90;;;;;;5033350;28;20271;-73
2022/04/15 05:07:14;;;;;;;16.23;11.60;;;10.50;99.90;;;;;;5032517;28;20231;-73
2022/04/15 05:09:42;;;;;;;13.05;11.20;;;10.50;99.90;;;;;;5050226;28;20306;-74
2022/04/15 05:12:11;;;;;;;12.00;10.52;;;10.50;99.90;;;;;;5053293;28;20309;-74
2022/04/15 05:14:38;;;;;;;14.68;11.02;;;10.60;99.90;;;;;;5035038;28;20231;-73
2022/04/15 05:17:05;;;;;;;14.30;12.35;;;10.80;99.90;;;;;;5032989;28;20214;-73
2022/04/15 05:19:32;;;;;;;11.75;10.30;;;11.00;99.90;;;;;;5048060;28;20282;-72
2022/04/15 05:21:59;;;;;;;10.80;9.75;;;11.50;99.60;;;;;;5052878;28;20195;-74
2022/04/15 05:24:27;;;;;;;10.52;9.35;;;12.00;96.40;;;;;;5047807;28;20231;-73
2022/04/15 05:26:54;;;;;;;10.40;9.40;;;12.10;89.80;;;;;;5051580;28;20207;-72
2022/04/15 05:29:21;;;;;;;11.38;10.18;;;12.30;87.00;;;;;;5032781;28;20247;-74
2022/04/15 05:31:48;;;;;;;9.95;8.95;;;12.50;81.80;;;;;;5033413;28;20221;-73
2022/04/15 05:34:15;;;;;;;10.80;9.63;;;12.80;80.70;;;;;;5036326;28;20208;-73
2022/04/15 05:36:41;;;;;;;10.30;9.30;;;12.90;77.30;;;;;;5035394;28;20196;-71
2022/04/15 05:39:08;;;;;;;10.75;9.75;;;13.00;74.80;;;;;;5032524;28;20238;-72
2022/04/15 05:41:37;;;;;;;10.95;9.80;;;13.00;73.60;;;;;;5032220;28;20239;-72
2022/04/15 05:44:04;;;;;;;14.82;9.57;;;13.00;73.30;;;;;;5040370;28;20206;-72
2022/04/15 05:46:31;;;;;;;11.18;10.05;;;13.00;73.60;;;;;;5045342;28;20203;-73
2022/04/15 05:48:58;;;;;;;10.48;9.48;;;12.80;74.50;;;;;;5029993;28;20294;-71
2022/04/15 05:51:25;;;;;;;11.93;9.50;;;12.90;74.80;;;;;;5015967;28;20327;-72
2022/04/15 05:53:52;;;;;;;14.48;10.68;;;13.00;74.70;;;;;;5027942;28;20218;-73
2022/04/15 05:56:19;;;;;;;15.52;9.90;;;13.10;74.70;;;;;;5034308;28;20297;-72
2022/04/15 05:58:47;;;;;;;10.20;9.15;;;13.20;73.40;;;;;;5022384;28;20204;-73
2022/04/15 06:01:14;;;;;;;12.73;10.10;;;13.30;72.80;;;;;;5015413;28;20235;-72
2022/04/15 06:03:40;;;;;;;11.90;10.05;;;13.50;71.80;;;;;;5025986;28;20249;-72
2022/04/15 06:06:07;;;;;;;10.93;9.93;;;13.50;70.70;;;;;;5029573;28;20235;-72
2022/04/15 06:08:34;;;;;;;11.97;10.77;;;13.60;70.80;;;;;;5017404;28;20219;-74
2022/04/15 06:11:01;;;;;;;11.82;10.50;;;13.70;69.40;;;;;;5021343;28;20484;-73
2022/04/15 06:13:29;;;;;;;11.30;10.20;;;13.30;71.10;;;;;;5034370;28;20223;-73
2022/04/15 06:15:58;;;;;;;10.23;9.23;;;13.20;73.70;;;;;;5029170;28;20962;-72
2022/04/15 06:18:26;;;;;;;11.70;10.20;;;13.60;70.80;;;;;;5014335;28;20223;-73
2022/04/15 06:20:53;;;;;;;13.68;9.98;;;13.60;70.20;;;;;;5016140;28;20477;-72
2022/04/15 06:23:21;;;;;;;11.57;9.60;;;13.70;69.30;;;;;;5016309;28;20208;-73
2022/04/15 06:25:48;;;;;;;11.67;9.93;;;13.90;68.50;;;;;;5016212;28;20520;-75
2022/04/15 06:28:16;;;;;;;11.73;10.30;;;14.10;69.10;;;;;;5033676;28;20871;-74
2022/04/15 06:30:43;;;;;;;13.30;10.67;;;14.10;67.90;;;;;;5032519;28;20488;-74
2022/04/15 06:33:11;;;;;;;11.97;10.77;;;14.20;66.60;;;;;;5033980;28;20577;-72
2022/04/15 06:35:39;;;;;;;13.13;11.80;;;14.20;67.10;;;;;;5033636;28;20977;-73
2022/04/15 06:38:06;;;;;;;14.03;12.37;;;14.60;65.30;;;;;;5033877;28;20462;-74
2022/04/15 06:40:34;;;;;;;12.17;10.87;;;14.70;62.90;;;;;;5034379;28;20452;-73
2022/04/15 06:43:00;;;;;;;14.97;12.20;;;14.90;63.10;;;;;;5018084;28;20426;-73
2022/04/15 06:45:28;;;;;;;14.63;12.43;;;15.20;62.10;;;;;;5018901;28;20536;-76
2022/04/15 06:47:54;;;;;;;13.70;12.20;;;15.30;60.60;;;;;;5039628;28;20458;-73
2022/04/15 06:50:24;;;;;;;17.93;14.27;;;15.60;59.80;;;;;;5037296;28;20513;-74
2022/04/15 06:52:51;;;;;;;19.53;14.27;;;14.90;60.20;;;;;;5036552;28;20876;-74
2022/04/15 06:55:19;;;;;;;16.80;13.40;;;14.60;62.10;;;;;;5037255;28;20449;-73
2022/04/15 06:57:46;;;;;;;14.30;12.57;;;15.00;63.20;;;;;;5018209;28;20532;-73
2022/04/15 07:00:14;;;;;;;20.00;15.57;;;15.30;61.20;;;;;;5017779;28;20473;-73
2022/04/15 07:02:41;;;;;;;17.63;15.83;;;15.20;59.10;;;;;;5018185;28;20437;-75
2022/04/15 07:05:09;;;;;;;19.17;15.90;;;15.30;59.30;;;;;;5017271;28;20520;-75
2022/04/15 07:07:38;;;;;;;19.67;17.57;;;15.50;57.70;;;;;;5016724;28;20476;-74
2022/04/15 07:10:06;;;;;;;22.97;15.97;;;15.50;56.80;;;;;;5016514;28;20445;-72
2022/04/15 07:12:33;;;;;;;19.60;16.50;;;15.50;57.00;;;;;;5018084;28;20455;-75
2022/04/15 07:15:00;;;;;;;18.73;16.20;;;15.30;57.60;;;;;;5028382;28;20448;-72
2022/04/15 07:17:27;;;;;;;21.60;18.50;;;15.50;58.50;;;;;;5029705;28;20467;-71
2022/04/15 07:19:54;;;;;;;24.00;20.33;;;15.30;58.00;;;;;;5037154;28;20492;-70
2022/04/15 07:22:21;;;;;;;26.33;19.33;;;15.40;55.90;;;;;;5036537;28;20458;-71
2022/04/15 07:24:50;;;;;;;23.43;18.27;;;15.30;56.40;;;;;;5035935;28;20499;-70
2022/04/15 07:27:17;;;;;;;22.13;18.50;;;15.30;57.10;;;;;;5036998;28;20465;-72
2022/04/15 07:29:45;;;;;;;24.13;19.17;;;15.50;55.50;;;;;;5037588;28;20509;-69
2022/04/15 07:32:13;;;;;;;23.43;19.90;;;15.10;56.90;;;;;;5038851;28;20425;-71
2022/04/15 07:34:40;;;;;;;30.43;19.40;;;15.00;57.50;;;;;;5036651;28;20819;-71
2022/04/15 07:37:07;;;;;;;29.23;21.40;;;15.00;57.70;;;;;;5029281;28;20462;-71
2022/04/15 07:39:34;;;;;;;26.00;19.50;;;15.10;57.90;;;;;;5034179;28;20498;-74
2022/04/15 07:42:02;;;;;;;27.40;21.10;;;15.20;56.70;;;;;;5054865;28;20448;-73
2022/04/15 07:44:30;;;;;;;23.80;20.60;;;15.00;57.50;;;;;;5053649;28;20415;-74
2022/04/15 07:46:57;;;;;;;26.00;20.60;;;15.00;58.10;;;;;;5036408;28;20522;-74
2022/04/15 07:49:23;;;;;;;24.23;18.20;;;15.00;58.00;;;;;;5039707;28;20493;-74
2022/04/15 07:51:50;;;;;;;22.20;19.60;;;15.10;58.20;;;;;;5022392;28;20441;-71
2022/04/15 07:54:17;;;;;;;23.63;19.80;;;15.00;58.10;;;;;;5024638;28;20542;-75
2022/04/15 07:56:44;;;;;;;21.20;18.97;;;15.00;58.30;;;;;;5030749;28;20513;-76
2022/04/15 07:59:12;;;;;;;23.97;19.80;;;15.10;57.70;;;;;;5036429;28;20531;-78
2022/04/15 08:01:39;;;;;;;21.60;19.23;;;15.40;56.80;;;;;;5042819;28;20458;-75
2022/04/15 08:04:06;;;;;;;21.87;18.30;;;15.50;56.90;;;;;;5046256;28;20429;-76
2022/04/15 08:06:33;;;;;;;23.50;19.63;;;15.50;56.60;;;;;;5042413;28;20429;-78
2022/04/15 08:09:00;;;;;;;29.60;20.57;;;15.70;54.60;;;;;;5030981;28;20830;-76
2022/04/15 08:11:28;;;;;;;22.97;20.37;;;15.50;56.50;;;;;;5034831;28;20454;-76
2022/04/15 08:13:56;;;;;;;27.63;19.80;;;15.60;56.00;;;;;;5053734;28;20501;-74
2022/04/15 08:16:25;;;;;;;22.43;19.47;;;15.60;56.00;;;;;;5041744;28;20469;-77
2022/04/15 08:18:54;;;;;;;24.87;18.93;;;15.80;55.40;;;;;;5026241;28;20928;-76
2022/04/15 08:21:21;;;;;;;22.07;19.20;;;15.80;54.70;;;;;;5025969;28;20485;-76
2022/04/15 08:23:48;;;;;;;22.70;17.90;;;15.70;55.50;;;;;;5024066;28;20534;-76
2022/04/15 08:26:15;;;;;;;25.50;19.93;;;16.00;54.80;;;;;;5025170;28;20471;-76
2022/04/15 08:28:42;;;;;;;21.10;18.30;;;16.30;54.90;;;;;;5023389;28;20491;-75
2022/04/15 08:31:09;;;;;;;19.77;17.67;;;16.80;53.00;;;;;;5018635;28;20554;-75
2022/04/15 08:33:38;;;;;;;22.20;18.20;;;17.00;51.40;;;;;;5023100;28;20581;-74
2022/04/15 08:36:05;;;;;;;24.13;17.40;;;17.20;51.40;;;;;;5024563;28;20541;-76
2022/04/15 08:38:32;;;;;;;22.10;18.50;;;17.40;50.30;;;;;;5021705;28;20462;-74
2022/04/15 08:41:00;;;;;;;21.80;18.87;;;17.40;50.60;;;;;;5020273;28;20474;-76
2022/04/15 08:43:29;;;;;;;19.80;17.70;;;17.60;49.70;;;;;;5025135;28;20455;-76
2022/04/15 08:45:57;;;;;;;20.27;17.07;;;17.40;50.10;;;;;;5031157;28;20460;-76
2022/04/15 08:48:27;;;;;;;20.00;17.90;;;17.30;50.20;;;;;;5031117;28;20950;-78
2022/04/15 08:50:55;;;;;;;19.13;17.27;;;17.30;50.20;;;;;;5030936;28;20562;-76
2022/04/15 08:53:23;;;;;;;21.63;18.80;;;17.50;50.20;;;;;;5031528;28;20489;-75
2022/04/15 08:55:50;;;;;;;20.10;16.60;;;17.20;50.30;;;;;;5028484;28;20462;-76
2022/04/15 08:58:17;;;;;;;22.67;18.40;;;17.40;50.00;;;;;;5021815;28;20779;-76
2022/04/15 09:00:44;;;;;;;19.10;17.10;;;17.90;48.20;;;;;;5019494;28;20479;-77
2022/04/15 09:03:11;;;;;;;19.67;15.80;;;18.20;47.20;;;;;;5018269;28;20459;-77
2022/04/15 09:05:38;;;;;;;18.30;16.40;;;18.40;48.10;;;;;;5017973;28;20923;-76
2022/04/15 09:08:08;;;;;;;19.37;17.47;;;18.70;46.40;;;;;;5016742;28;20527;-76
2022/04/15 09:10:36;;;;;;;18.60;16.70;;;18.80;45.20;;;;;;5016037;28;20478;-78
2022/04/15 09:13:05;;;;;;;21.07;17.37;;;18.50;45.80;;;;;;5015457;28;20461;-75
2022/04/15 09:15:32;;;;;;;19.77;17.70;;;18.40;45.20;;;;;;5016071;28;20429;-77
2022/04/15 09:18:01;;;;;;;19.03;16.33;;;18.30;45.00;;;;;;5015404;28;20461;-75
2022/04/15 09:20:33;;;;;;;19.50;16.47;;;18.50;44.40;;;;;;5016332;28;20544;-77
2022/04/15 09:23:11;;;;;;;30.63;16.30;;;18.70;43.60;;;;;;5019759;28;20455;-76
2022/04/15 09:25:39;;;;;;;21.33;16.07;;;19.10;42.90;;;;;;5020058;28;20849;-75
2022/04/15 09:28:07;;;;;;;19.27;17.37;;;19.10;42.80;;;;;;5018635;28;20489;-76
2022/04/15 09:30:35;;;;;;;18.93;16.93;;;19.00;41.60;;;;;;5018107;28;20855;-76
2022/04/15 09:33:03;;;;;;;18.70;16.70;;;18.90;41.50;;;;;;5018925;28;20454;-75
2022/04/15 09:35:30;;;;;;;18.40;16.50;;;19.10;41.60;;;;;;5021289;28;20501;-77
2022/04/15 09:38:03;;;;;;;18.50;15.90;;;19.30;40.70;;;;;;5019012;28;20746;-76
2022/04/15 09:40:35;;;;;;;17.47;15.50;;;19.60;39.90;;;;;;5018551;28;20557;-76
2022/04/15 09:43:04;;;;;;;17.87;14.97;;;20.00;38.80;;;;;;5023388;28;20443;-76
2022/04/15 09:45:34;;;;;;;16.83;15.13;;;20.30;39.10;;;;;;5017990;28;20461;-77
2022/04/15 09:48:02;;;;;;;18.10;15.83;;;20.30;38.90;;;;;;5026436;28;20465;-71
2022/04/15 09:50:34;;;;;;;16.83;15.00;;;19.60;38.40;;;;;;5027812;28;20991;-75
2022/04/15 09:53:09;;;;;;;20.20;14.77;;;19.80;38.60;;;;;;5018804;28;20931;-76
2022/04/15 09:55:39;;;;;;;15.53;13.90;;;19.60;38.10;;;;;;5015989;28;20438;-75
2022/04/15 09:58:10;;;;;;;18.30;16.00;;;19.70;37.70;;;;;;5015388;28;20509;-76
2022/04/15 10:00:39;;;;;;;19.03;17.13;;;20.00;37.30;;;;;;5014990;28;20470;-76
2022/04/15 10:03:09;;;;;;;21.00;17.10;;;19.70;37.50;;;;;;5014714;28;20426;-77
2022/04/15 10:05:38;;;;;;;17.43;15.27;;;19.80;36.90;;;;;;5014876;28;20978;-73
2022/04/15 10:08:06;;;;;;;16.30;14.63;;;19.90;36.50;;;;;;5015220;28;20438;-77
2022/04/15 10:10:34;;;;;;;18.13;14.57;;;19.80;36.80;;;;;;5022384;28;20461;-75
2022/04/15 10:13:04;;;;;;;16.17;14.47;;;20.10;36.00;;;;;;5033081;28;20455;-75
2022/04/15 10:15:32;;;;;;;15.00;13.57;;;20.10;36.10;;;;;;5032444;28;20487;-77
2022/04/15 10:18:00;;;;;;;16.00;14.40;;;20.50;34.40;;;;;;5027161;28;20491;-76
2022/04/15 10:20:28;;;;;;;18.20;13.67;;;20.10;34.40;;;;;;5022809;28;20477;-78
2022/04/15 10:23:00;;;;;;;17.10;14.13;;;20.00;34.90;;;;;;5019750;28;20439;-77
2022/04/15 10:25:27;;;;;;;19.60;15.70;;;19.90;34.30;;;;;;5019685;28;20458;-76
2022/04/15 10:28:04;;;;;;;20.37;15.20;;;19.90;33.60;;;;;;5025551;28;20505;-75
2022/04/15 10:30:32;;;;;;;15.50;13.33;;;20.00;33.50;;;;;;5028533;28;20488;-77
2022/04/15 10:32:59;;;;;;;15.57;14.13;;;20.20;33.60;;;;;;5029706;28;20423;-74
2022/04/15 10:35:28;;;;;;;13.77;12.23;;;20.40;32.70;;;;;;5033969;28;20483;-75
2022/04/15 10:37:58;;;;;;;16.63;13.57;;;19.90;34.50;;;;;;5016449;28;20493;-76
2022/04/15 10:40:27;;;;;;;14.37;12.97;;;20.00;33.60;;;;;;5020631;28;20507;-77
2022/04/15 10:42:54;;;;;;;14.20;12.70;;;20.50;33.00;;;;;;5020894;28;20451;-76
2022/04/15 10:45:28;;;;;;;14.73;12.17;;;20.70;32.50;;;;;;5018801;28;20448;-78
2022/04/15 10:47:59;;;;;;;14.30;12.80;;;20.70;31.80;;;;;;5026134;28;20444;-76
2022/04/15 10:50:29;;;;;;;16.80;13.40;;;20.40;32.20;;;;;;5022929;28;20520;-78
2022/04/15 10:53:18;;;;;;;14.33;12.77;;;20.10;32.50;;;;;;5016882;28;20489;-75
2022/04/15 10:55:47;;;;;;;15.30;13.80;;;20.50;32.20;;;;;;5023788;28;20477;-75
2022/04/15 10:58:15;;;;;;;14.20;12.70;;;20.70;31.50;;;;;;5018967;28;20823;-74
2022/04/15 11:03:29;;;;;;;15.13;13.20;;;20.70;30.60;;;;;;5016816;28;20453;-75
2022/04/15 11:05:57;;;;;;;14.77;13.20;;;20.50;30.80;;;;;;5016917;28;20473;-76
2022/04/15 11:08:26;;;;;;;13.70;12.30;;;20.30;30.60;;;;;;5016429;28;20524;-77
2022/04/15 11:11:03;;;;;;;14.77;13.27;;;20.20;31.20;;;;;;5016601;28;20446;-76
2022/04/15 11:14:03;;;;;;;12.50;11.30;;;20.30;31.00;;;;;;5018267;28;20473;-76
2022/04/15 11:16:44;;;;;;;14.70;11.97;;;20.20;30.50;;;;;;5018941;28;20546;-76
2022/04/15 11:19:12;;;;;;;11.80;10.60;;;20.60;29.30;;;;;;5017454;28;20476;-76
2022/04/15 11:21:40;;;;;;;12.70;11.40;;;20.70;29.40;;;;;;5020035;28;20494;-76
2022/04/15 11:24:09;;;;;;;12.87;11.63;;;20.80;28.50;;;;;;5022218;28;20495;-76
2022/04/15 11:26:39;;;;;;;13.50;11.90;;;20.80;29.30;;;;;;5022319;28;20460;-78
2022/04/15 11:29:09;;;;;;;15.43;12.53;;;20.60;28.80;;;;;;5023971;28;20471;-75
2022/04/15 11:31:37;;;;;;;16.20;14.50;;;20.70;29.40;;;;;;5021250;28;20512;-76
2022/04/15 11:34:06;;;;;;;14.80;13.30;;;20.90;29.50;;;;;;5032829;28;20491;-75
2022/04/15 11:36:36;;;;;;;12.13;10.77;;;20.90;29.60;;;;;;5028573;28;20967;-75
2022/04/15 11:39:06;;;;;;;14.40;12.80;;;21.00;29.60;;;;;;5024554;28;20521;-75
2022/04/15 11:41:33;;;;;;;12.40;11.17;;;21.00;29.60;;;;;;5025295;28;20468;-76
2022/04/15 11:44:02;;;;;;;15.33;13.73;;;21.20;29.80;;;;;;5024952;28;20455;-75
2022/04/15 11:46:40;;;;;;;13.63;12.43;;;21.00;29.60;;;;;;5025468;28;20451;-75
2022/04/15 11:49:15;;;;;;;14.03;12.63;;;21.10;29.70;;;;;;5025702;28;20505;-77
2022/04/15 11:51:47;;;;;;;10.50;8.70;;;21.40;29.50;;;;;;5025770;28;20552;-75
2022/04/15 11:54:14;;;;;;;13.07;9.47;;;21.70;28.10;;;;;;5021441;28;20465;-76
2022/04/15 11:56:42;;;;;;;12.27;11.07;;;21.70;27.50;;;;;;5018917;28;20482;-77
2022/04/15 11:59:11;;;;;;;10.57;9.43;;;21.30;27.10;;;;;;5022216;28;20479;-72
2022/04/15 12:01:39;;;;;;;11.57;9.53;;;21.10;28.20;;;;;;5027204;28;20577;-73
2022/04/15 12:04:06;;;;;;;10.77;9.77;;;20.90;26.70;;;;;;5024560;28;20460;-75
2022/04/15 12:06:40;;;;;;;14.50;12.10;;;20.90;27.80;;;;;;5018798;28;20863;-74
2022/04/15 12:09:10;;;;;;;16.20;10.80;;;20.90;28.20;;;;;;5022373;28;20558;-74
2022/04/15 12:11:37;;;;;;;11.93;10.73;;;21.00;28.60;;;;;;5020667;28;20436;-75
2022/04/15 12:14:06;;;;;;;11.00;9.90;;;21.30;28.60;;;;;;5017732;28;20985;-74
2022/04/15 12:16:35;;;;;;;11.47;10.43;;;21.00;28.80;;;;;;5017339;28;20433;-76
2022/04/15 12:19:03;;;;;;;12.00;10.30;;;21.10;27.90;;;;;;5018067;28;20450;-74
2022/04/15 12:21:32;;;;;;;11.90;10.73;;;21.00;27.80;;;;;;5018535;28;20433;-74
2022/04/15 12:24:03;;;;;;;11.50;10.33;;;20.90;28.40;;;;;;5017672;28;20520;-73
2022/04/15 12:26:43;;;;;;;11.50;10.50;;;21.00;28.30;;;;;;5017173;28;20525;-74
2022/04/15 12:31:55;;;;;;;11.70;10.50;;;20.80;27.80;;;;;;5022534;28;20423;-73
2022/04/15 12:34:32;;;;;;;10.13;9.17;;;20.80;27.80;;;;;;5018411;28;20495;-76
2022/04/15 12:36:59;;;;;;;11.47;9.90;;;20.50;28.10;;;;;;5018490;28;20464;-74
2022/04/15 12:39:25;;;;;;;10.47;9.33;;;20.60;27.80;;;;;;5018175;28;20482;-76
2022/04/15 12:41:59;;;;;;;9.90;8.90;;;20.80;27.70;;;;;;5021306;28;20462;-75